Time;durP1;ratioP1;P1;durP2;ratioP2;P2;SDS_P1;SDS_P2;PMS_P1;PMS_P2;Temp;Humidity;BMP_temperature;BMP_pressure;BME280_temperature;BME280_humidity;BME280_pressure;Samples;Min_cycle;Max_cycle;Signal;HPM_P1;HPM_P2
2022/11/04 00:01:47;;;;;;;6.80;3.67;;;11.40;99.90;;;;;;5073163;28;20032;-59
2022/11/04 00:04:15;;;;;;;5.95;3.45;;;11.40;99.90;;;;;;5073459;28;20029;-60
2022/11/04 00:06:41;;;;;;;5.82;3.47;;;11.40;99.90;;;;;;5087432;28;20042;-59
2022/11/04 00:09:11;;;;;;;7.25;3.63;;;11.40;99.90;;;;;;5084869;28;20760;-60
2022/11/04 00:14:20;;;;;;;5.53;3.50;;;11.40;99.90;;;;;;5092169;28;20082;-59
2022/11/04 00:30:09;;;;;;;7.45;4.53;;;11.30;99.90;;;;;;5092728;28;20101;-60
2022/11/04 00:35:21;;;;;;;11.63;5.10;;;11.30;99.90;;;;;;5090284;28;20115;-60
2022/11/04 00:37:46;;;;;;;7.93;5.07;;;11.30;99.90;;;;;;5071876;28;20100;-62
2022/11/04 00:40:14;;;;;;;9.35;6.00;;;11.30;99.90;;;;;;5072813;28;20373;-63
2022/11/04 00:42:43;;;;;;;8.23;5.10;;;11.30;99.90;;;;;;5072629;28;20039;-61
2022/11/04 00:45:09;;;;;;;11.60;5.75;;;11.30;99.90;;;;;;5092087;28;20024;-63
2022/11/04 00:47:34;;;;;;;12.18;5.32;;;11.30;99.90;;;;;;5092790;28;20049;-60
2022/11/04 00:50:00;;;;;;;8.73;5.07;;;11.20;99.90;;;;;;5092799;28;20099;-63
2022/11/04 00:52:26;;;;;;;9.48;5.63;;;11.30;99.90;;;;;;5092029;28;20531;-59
2022/11/04 00:54:51;;;;;;;9.68;6.15;;;11.30;99.90;;;;;;5091728;28;20058;-60
2022/11/04 00:57:17;;;;;;;13.15;6.97;;;11.30;99.90;;;;;;5092339;28;20364;-60
2022/11/04 00:59:44;;;;;;;12.20;8.00;;;11.40;99.90;;;;;;5092562;28;20044;-61
2022/11/04 01:02:10;;;;;;;16.45;10.07;;;11.40;99.90;;;;;;5092470;28;20110;-60
2022/11/04 01:04:36;;;;;;;15.95;9.23;;;11.40;99.90;;;;;;5075359;28;20413;-60
2022/11/04 01:07:02;;;;;;;15.25;10.38;;;11.30;99.90;;;;;;5072778;28;20028;-60
2022/11/04 01:09:28;;;;;;;12.93;8.32;;;11.40;99.90;;;;;;5072543;28;20475;-60
2022/11/04 01:11:54;;;;;;;12.70;7.85;;;11.40;99.90;;;;;;5071809;28;20039;-60
2022/11/04 01:14:20;;;;;;;12.05;7.18;;;11.30;99.90;;;;;;5084276;28;20040;-61
2022/11/04 01:16:48;;;;;;;9.73;5.82;;;11.30;99.90;;;;;;5091576;28;20024;-60
2022/11/04 01:19:13;;;;;;;9.80;6.18;;;11.20;99.90;;;;;;5091518;28;20464;-62
2022/11/04 01:21:39;;;;;;;8.98;5.25;;;11.20;99.90;;;;;;5092569;28;20057;-60
2022/11/04 01:24:05;;;;;;;8.38;5.10;;;11.10;99.90;;;;;;5092382;28;20465;-60
2022/11/04 01:26:33;;;;;;;8.52;4.53;;;11.10;99.90;;;;;;5090606;28;20023;-60
2022/11/04 01:28:59;;;;;;;7.63;4.47;;;11.00;99.90;;;;;;5092691;28;20480;-61
2022/11/04 01:31:29;;;;;;;8.38;4.40;;;11.00;99.90;;;;;;5092325;28;20017;-62
2022/11/04 01:33:55;;;;;;;6.38;3.70;;;10.90;99.90;;;;;;5092003;28;20039;-64
2022/11/04 01:36:22;;;;;;;6.45;3.58;;;10.80;99.90;;;;;;5092153;28;20065;-62
2022/11/04 01:38:48;;;;;;;5.53;3.47;;;10.80;99.90;;;;;;5092298;28;20032;-62
2022/11/04 01:41:26;;;;;;;4.70;2.63;;;10.70;99.90;;;;;;5091763;28;20020;-60
2022/11/04 01:44:19;;;;;;;4.88;2.55;;;10.70;99.90;;;;;;5092122;28;20046;-60
2022/11/04 01:46:50;;;;;;;4.10;2.38;;;10.60;99.90;;;;;;5062500;28;20032;-61
2022/11/04 01:49:27;;;;;;;3.30;1.95;;;10.60;99.90;;;;;;5092452;28;20020;-62
2022/11/04 01:52:05;;;;;;;3.95;1.98;;;10.60;99.90;;;;;;5095435;28;20552;-62
2022/11/04 01:54:32;;;;;;;3.83;2.17;;;10.50;99.90;;;;;;5095252;28;20022;-60
2022/11/04 01:57:02;;;;;;;4.28;1.95;;;10.50;99.90;;;;;;5095935;28;20024;-60
2022/11/04 01:59:37;;;;;;;3.72;2.22;;;10.50;99.90;;;;;;5096200;28;20024;-60
2022/11/04 02:02:03;;;;;;;6.68;2.25;;;10.50;99.90;;;;;;5095146;28;20107;-59
2022/11/04 02:04:30;;;;;;;4.45;2.25;;;10.40;99.90;;;;;;5095765;28;20199;-60
2022/11/04 02:06:59;;;;;;;4.78;2.22;;;10.40;99.90;;;;;;5095812;28;20024;-60
2022/11/04 02:09:27;;;;;;;5.45;2.63;;;10.40;99.90;;;;;;5094720;28;20102;-60
2022/11/04 02:14:39;;;;;;;5.63;3.10;;;10.30;99.90;;;;;;5094911;28;20092;-60
2022/11/04 02:17:17;;;;;;;8.18;3.72;;;10.30;99.90;;;;;;5095943;28;20478;-60
2022/11/04 02:20:05;;;;;;;9.60;4.25;;;10.30;99.90;;;;;;5095561;28;20024;-60
2022/11/04 02:23:07;;;;;;;10.07;4.47;;;10.40;99.90;;;;;;5094761;28;20016;-60
2022/11/04 02:25:42;;;;;;;9.75;6.00;;;10.40;99.90;;;;;;5095317;28;20024;-60
2022/11/04 02:28:34;;;;;;;11.52;6.65;;;10.40;99.90;;;;;;5094217;28;20094;-60
2022/11/04 02:31:06;;;;;;;15.50;8.15;;;10.40;99.90;;;;;;5095064;28;20032;-60
2022/11/04 02:33:39;;;;;;;;;;;10.40;99.90;;;;;;5095307;28;20032;-60
2022/11/04 02:36:44;;;;;;;14.55;8.80;;;10.50;99.90;;;;;;5094380;28;19910;-60
2022/11/04 02:39:39;;;;;;;15.50;8.15;;;10.50;99.90;;;;;;5095432;28;20036;-60
2022/11/04 02:42:29;;;;;;;18.90;10.35;;;10.50;99.90;;;;;;5094994;28;20016;-59
2022/11/04 02:45:01;;;;;;;19.23;10.95;;;10.50;99.90;;;;;;5093098;28;20020;-60
2022/11/04 02:47:29;;;;;;;17.10;10.07;;;10.50;99.90;;;;;;5094953;28;20024;-61
2022/11/04 02:50:18;;;;;;;19.20;11.32;;;10.60;99.90;;;;;;5092938;28;20487;-60
2022/11/04 02:52:51;;;;;;;25.52;13.27;;;10.60;99.90;;;;;;5085360;28;20041;-60
2022/11/04 02:55:22;;;;;;;23.33;12.77;;;10.60;99.90;;;;;;5094727;28;20456;-62
2022/11/04 02:57:52;;;;;;;26.27;14.57;;;10.60;99.90;;;;;;5094406;28;20133;-62
2022/11/04 03:00:20;;;;;;;27.52;14.63;;;10.60;99.90;;;;;;5094662;28;20157;-63
2022/11/04 03:02:51;;;;;;;25.50;15.10;;;10.50;99.90;;;;;;5094336;28;20028;-60
2022/11/04 03:05:29;;;;;;;26.83;14.90;;;10.60;99.90;;;;;;5093591;28;20369;-61
2022/11/04 03:07:58;;;;;;;29.38;14.77;;;10.50;99.90;;;;;;5093856;28;20032;-61
2022/11/04 03:10:34;;;;;;;26.10;14.43;;;10.50;99.90;;;;;;5094223;28;20104;-61
2022/11/04 03:13:13;;;;;;;25.00;15.38;;;10.50;99.90;;;;;;5093315;28;20044;-60
2022/11/04 03:15:47;;;;;;;28.00;15.55;;;10.50;99.90;;;;;;5094006;28;20035;-62
2022/11/04 03:18:31;;;;;;;27.55;14.77;;;10.40;99.90;;;;;;5093144;28;20021;-58
2022/11/04 03:20:59;;;;;;;25.95;14.65;;;10.50;99.90;;;;;;5093746;28;20027;-60
2022/11/04 03:23:25;;;;;;;24.83;14.40;;;10.40;99.90;;;;;;5092316;28;20024;-63
2022/11/04 03:25:56;;;;;;;27.33;15.68;;;10.40;99.90;;;;;;5093279;28;20027;-60
2022/11/04 03:28:43;;;;;;;21.77;13.25;;;10.40;99.90;;;;;;5093521;28;20020;-60
2022/11/04 03:31:20;;;;;;;27.55;15.60;;;10.30;99.90;;;;;;5093623;28;20158;-60
2022/11/04 03:33:49;;;;;;;28.15;15.75;;;10.20;99.90;;;;;;5092817;28;20035;-59
2022/11/04 03:36:16;;;;;;;26.98;15.45;;;10.20;99.90;;;;;;5093440;28;20024;-60
2022/11/04 03:38:42;;;;;;;27.25;16.08;;;10.20;99.90;;;;;;5093452;28;20035;-62
2022/11/04 03:41:19;;;;;;;28.38;15.77;;;10.20;99.90;;;;;;5092780;28;20024;-60
2022/11/04 03:43:44;;;;;;;26.25;14.90;;;10.10;99.90;;;;;;5093276;28;20024;-60
2022/11/04 03:46:10;;;;;;;28.90;16.50;;;10.10;99.90;;;;;;5091386;28;20036;-58
2022/11/04 03:48:36;;;;;;;27.30;16.33;;;10.00;99.90;;;;;;5093326;28;20406;-60
2022/11/04 03:51:02;;;;;;;28.13;17.00;;;9.90;99.90;;;;;;5092920;28;20090;-63
2022/11/04 03:53:29;;;;;;;29.60;15.30;;;9.90;99.90;;;;;;5092600;28;20472;-63
2022/11/04 03:56:36;;;;;;;27.75;16.38;;;10.00;99.90;;;;;;5093151;28;20550;-60
2022/11/04 03:59:16;;;;;;;27.58;16.02;;;10.10;99.90;;;;;;5079122;28;20040;-62
2022/11/04 04:01:59;;;;;;;32.13;17.27;;;10.10;99.90;;;;;;5092254;28;20368;-61
2022/11/04 04:04:41;;;;;;;28.63;17.15;;;10.10;99.90;;;;;;5091674;28;20020;-60
2022/11/04 04:07:34;;;;;;;28.83;15.68;;;10.20;99.90;;;;;;5092190;28;20426;-60
2022/11/04 04:10:40;;;;;;;31.70;17.00;;;10.10;99.90;;;;;;5093010;28;20031;-59
2022/11/04 04:13:33;;;;;;;32.67;17.15;;;10.10;99.90;;;;;;5091644;28;20032;-60
2022/11/04 04:16:08;;;;;;;32.25;17.10;;;10.20;99.90;;;;;;5083973;28;20045;-59
2022/11/04 04:18:52;;;;;;;30.10;16.17;;;10.20;99.90;;;;;;5092919;28;20020;-60
2022/11/04 04:21:21;;;;;;;26.88;15.35;;;10.20;99.90;;;;;;5092038;28;20016;-60
2022/11/04 04:29:22;;;;;;;26.75;15.27;;;10.10;99.90;;;;;;5092038;28;20131;-59
2022/11/04 04:31:48;;;;;;;23.65;14.38;;;10.00;99.90;;;;;;5092190;28;20016;-59
2022/11/04 04:34:19;;;;;;;23.30;13.93;;;10.00;99.90;;;;;;5092267;28;20050;-59
2022/11/04 04:36:56;;;;;;;27.90;15.10;;;9.90;99.90;;;;;;5090581;28;20073;-59
2022/11/04 04:45:00;;;;;;;29.10;15.73;;;10.00;99.90;;;;;;5092407;28;20043;-59
2022/11/04 04:47:44;;;;;;;24.95;13.98;;;10.00;99.90;;;;;;5092467;28;20020;-60
2022/11/04 04:50:15;;;;;;;26.20;14.80;;;10.10;99.90;;;;;;5091828;28;20027;-60
2022/11/04 04:52:45;;;;;;;23.90;13.30;;;10.20;99.90;;;;;;5091699;28;20059;-59
2022/11/04 04:55:11;;;;;;;26.73;14.35;;;10.10;99.90;;;;;;5092174;28;20404;-60
2022/11/04 04:57:37;;;;;;;26.95;14.52;;;10.20;99.90;;;;;;5091627;28;20024;-59
2022/11/04 05:00:05;;;;;;;24.08;13.55;;;10.10;99.90;;;;;;5091922;28;20107;-60
2022/11/04 05:02:31;;;;;;;24.27;13.07;;;10.10;99.90;;;;;;5092112;28;20043;-60
2022/11/04 05:04:58;;;;;;;22.20;12.52;;;10.10;99.90;;;;;;5091333;28;20016;-60
2022/11/04 05:07:24;;;;;;;24.95;13.48;;;10.10;99.90;;;;;;5092169;28;20034;-61
2022/11/04 05:09:50;;;;;;;23.35;11.82;;;10.00;99.90;;;;;;5092017;28;20032;-61
2022/11/04 05:12:16;;;;;;;19.92;10.32;;;9.80;99.90;;;;;;5090896;28;20032;-60
2022/11/04 05:14:41;;;;;;;20.63;11.10;;;9.70;99.90;;;;;;5091946;28;20295;-60
2022/11/04 05:17:07;;;;;;;21.67;10.32;;;9.60;99.90;;;;;;5091779;28;20039;-61
2022/11/04 05:19:32;;;;;;;16.13;8.95;;;9.50;99.90;;;;;;5088914;28;20020;-61
2022/11/04 05:21:58;;;;;;;16.65;8.00;;;9.40;99.90;;;;;;5092095;28;20055;-60
2022/11/04 05:24:24;;;;;;;17.00;9.52;;;9.40;99.90;;;;;;5092031;28;20028;-63
2022/11/04 05:26:50;;;;;;;15.32;8.02;;;9.30;99.90;;;;;;5096343;28;20016;-60
2022/11/04 05:29:15;;;;;;;16.00;8.20;;;9.20;99.90;;;;;;5095634;28;20251;-61
2022/11/04 05:31:41;;;;;;;16.77;8.82;;;9.10;99.90;;;;;;5094071;28;20017;-61
2022/11/04 05:34:10;;;;;;;15.07;7.90;;;9.10;99.90;;;;;;5094292;28;20035;-61
2022/11/04 05:36:36;;;;;;;18.38;7.53;;;9.00;99.90;;;;;;5095994;28;20122;-62
2022/11/04 05:39:02;;;;;;;14.13;7.28;;;9.00;99.90;;;;;;5094651;28;20115;-60
2022/11/04 05:41:28;;;;;;;11.00;5.75;;;9.00;99.90;;;;;;5095336;28;20024;-60
2022/11/04 05:43:55;;;;;;;12.20;6.22;;;8.90;99.90;;;;;;5095578;28;20024;-60
2022/11/04 05:46:22;;;;;;;14.13;6.00;;;8.90;99.90;;;;;;5094469;28;20413;-61
2022/11/04 05:48:47;;;;;;;16.00;6.53;;;8.80;99.90;;;;;;5095343;28;20430;-59
2022/11/04 05:51:19;;;;;;;12.20;6.13;;;8.80;99.90;;;;;;5094994;28;20392;-64
2022/11/04 05:53:44;;;;;;;;;;;8.80;99.90;;;;;;5094934;28;20518;-60
2022/11/04 05:56:10;;;;;;;12.02;6.40;;;8.90;99.90;;;;;;5095412;28;19916;-62
2022/11/04 05:58:36;;;;;;;10.88;5.93;;;8.90;99.90;;;;;;5094631;28;20024;-60
2022/11/04 06:01:23;;;;;;;12.30;6.28;;;9.00;99.90;;;;;;5094876;28;20036;-60
2022/11/04 06:03:49;;;;;;;13.48;5.68;;;9.00;99.90;;;;;;5095257;28;20101;-61
2022/11/04 06:06:14;;;;;;;10.77;5.30;;;9.00;99.90;;;;;;5095113;28;20480;-61
2022/11/04 06:08:40;;;;;;;9.43;5.55;;;9.00;99.90;;;;;;5094615;28;20020;-61
2022/11/04 06:11:06;;;;;;;10.05;5.15;;;9.00;99.90;;;;;;5095107;28;20046;-62
2022/11/04 06:13:32;;;;;;;10.55;5.68;;;8.90;99.90;;;;;;5095164;28;20039;-59
2022/11/04 06:15:57;;;;;;;9.95;4.97;;;8.80;99.90;;;;;;5094259;28;20020;-60
2022/11/04 06:18:23;;;;;;;12.55;5.20;;;8.80;99.90;;;;;;5094980;28;20468;-60
2022/11/04 06:20:48;;;;;;;11.85;5.43;;;8.70;99.90;;;;;;5092078;28;20073;-59
2022/11/04 06:23:14;;;;;;;10.38;5.20;;;8.70;99.90;;;;;;5094574;28;20640;-58
2022/11/04 06:25:39;;;;;;;14.55;5.78;;;8.70;99.90;;;;;;5093016;28;20074;-60
2022/11/04 06:28:05;;;;;;;11.57;4.82;;;8.60;99.90;;;;;;5093889;28;20141;-58
2022/11/04 06:30:30;;;;;;;10.48;5.38;;;8.60;99.90;;;;;;5094865;28;20113;-59
2022/11/04 06:32:56;;;;;;;11.27;4.50;;;8.60;99.90;;;;;;5092110;28;20024;-64
2022/11/04 06:35:22;;;;;;;9.25;4.68;;;8.50;99.90;;;;;;5091590;28;20101;-60
2022/11/04 06:37:47;;;;;;;8.13;4.53;;;8.50;99.90;;;;;;5093328;28;20044;-59
2022/11/04 06:40:13;;;;;;;9.43;4.20;;;8.50;99.90;;;;;;5094479;28;20024;-58
2022/11/04 06:42:39;;;;;;;10.20;4.35;;;8.50;99.90;;;;;;5095358;28;20387;-58
2022/11/04 06:45:05;;;;;;;13.75;5.03;;;8.40;99.90;;;;;;5103757;28;20038;-59
2022/11/04 06:47:30;;;;;;;8.88;4.25;;;8.40;99.90;;;;;;5074094;28;20033;-59
2022/11/04 06:49:56;;;;;;;10.32;4.35;;;8.40;99.90;;;;;;5073595;28;20028;-59
2022/11/04 06:52:21;;;;;;;10.07;3.83;;;8.50;99.90;;;;;;5073368;28;20047;-59
2022/11/04 06:54:47;;;;;;;11.73;4.10;;;8.50;99.90;;;;;;5089384;28;20488;-61
2022/11/04 06:57:12;;;;;;;9.70;4.53;;;8.50;99.90;;;;;;5073800;28;20350;-57
2022/11/04 06:59:38;;;;;;;9.50;4.05;;;8.60;99.90;;;;;;5073659;28;20429;-59
2022/11/04 07:02:04;;;;;;;9.50;3.55;;;8.60;99.90;;;;;;5073964;28;20028;-58
2022/11/04 07:04:30;;;;;;;9.27;4.68;;;8.60;99.90;;;;;;5073194;28;20024;-60
2022/11/04 07:06:55;;;;;;;8.10;3.83;;;8.70;99.90;;;;;;5081313;28;20389;-58
2022/11/04 07:09:21;;;;;;;15.82;4.47;;;8.70;99.90;;;;;;5073697;28;20029;-59
2022/11/04 07:11:47;;;;;;;9.93;4.50;;;8.70;99.90;;;;;;5073013;28;20039;-59
2022/11/04 07:14:13;;;;;;;9.55;4.50;;;8.70;99.90;;;;;;5089174;28;20056;-59
2022/11/04 07:16:39;;;;;;;7.93;4.20;;;8.70;99.90;;;;;;5085573;28;20505;-58
2022/11/04 07:19:05;;;;;;;6.75;3.33;;;8.70;99.90;;;;;;5093437;28;20484;-60
2022/11/04 07:21:31;;;;;;;10.18;4.05;;;8.60;99.90;;;;;;5093784;28;20063;-60
2022/11/04 07:23:57;;;;;;;9.15;4.45;;;8.60;99.90;;;;;;5091985;28;20044;-59
2022/11/04 07:26:22;;;;;;;13.60;4.53;;;8.50;99.90;;;;;;5073286;28;20111;-60
2022/11/04 07:28:48;;;;;;;10.75;4.72;;;8.50;99.90;;;;;;5073381;28;20135;-58
2022/11/04 07:31:14;;;;;;;12.40;5.53;;;8.50;99.90;;;;;;5082023;28;20020;-61
2022/11/04 07:33:40;;;;;;;9.20;4.32;;;8.50;99.90;;;;;;5093764;28;20713;-59
2022/11/04 07:36:09;;;;;;;8.77;4.40;;;8.50;99.90;;;;;;5084325;28;20055;-58
2022/11/04 07:38:35;;;;;;;7.22;4.00;;;8.50;99.90;;;;;;5072363;28;20056;-61
2022/11/04 07:43:02;;;;;;;8.52;4.18;;;8.50;99.90;;;;;;5078659;27;20359;-60
2022/11/04 07:45:27;;;;;;;9.27;4.72;;;8.50;99.90;;;;;;5069337;28;20025;-59
2022/11/04 07:47:53;;;;;;;10.57;5.22;;;8.60;99.90;;;;;;5087074;28;20968;-55
2022/11/04 07:50:18;;;;;;;7.22;3.90;;;8.60;99.90;;;;;;5078347;28;20020;-60
2022/11/04 07:52:44;;;;;;;9.90;4.63;;;8.60;99.90;;;;;;5085455;28;20024;-56
2022/11/04 07:55:12;;;;;;;10.07;4.47;;;8.70;99.90;;;;;;5086740;28;20020;-59
2022/11/04 07:57:38;;;;;;;12.55;4.22;;;8.70;99.90;;;;;;5084634;28;20049;-60
2022/11/04 08:00:05;;;;;;;8.98;4.72;;;8.70;99.90;;;;;;5085429;28;20536;-61
2022/11/04 08:02:31;;;;;;;8.95;3.85;;;8.80;99.90;;;;;;5085698;28;20051;-57
2022/11/04 08:04:57;;;;;;;9.52;4.97;;;8.80;99.90;;;;;;5085493;28;20046;-61
2022/11/04 08:07:22;;;;;;;11.38;4.65;;;8.90;99.90;;;;;;5084062;28;20025;-60
2022/11/04 08:09:48;;;;;;;12.02;4.63;;;8.90;99.90;;;;;;5084678;28;20078;-59
2022/11/04 08:12:13;;;;;;;7.45;4.25;;;8.90;99.90;;;;;;5081537;28;20021;-59
2022/11/04 08:14:39;;;;;;;8.45;3.67;;;9.00;99.90;;;;;;5086371;28;20028;-61
2022/11/04 08:17:05;;;;;;;9.02;4.28;;;9.00;99.90;;;;;;5083679;28;20429;-60
2022/11/04 08:19:30;;;;;;;8.95;3.90;;;9.10;99.90;;;;;;5087017;28;20032;-63
2022/11/04 08:21:56;;;;;;;12.70;4.15;;;9.10;99.90;;;;;;5084895;28;20036;-59
2022/11/04 08:24:21;;;;;;;10.40;4.75;;;9.20;99.90;;;;;;5086836;28;20032;-61
2022/11/04 08:26:47;;;;;;;13.25;5.25;;;9.20;99.90;;;;;;5084305;28;20028;-58
2022/11/04 08:29:13;;;;;;;10.07;4.43;;;9.30;99.90;;;;;;5085059;28;20024;-59
2022/11/04 08:31:39;;;;;;;9.65;5.00;;;9.30;99.90;;;;;;5083444;28;20016;-60
2022/11/04 08:34:07;;;;;;;9.65;4.35;;;9.40;99.90;;;;;;5086521;28;20028;-60
2022/11/04 08:36:39;;;;;;;8.75;4.22;;;9.60;99.90;;;;;;5083389;28;20032;-59
2022/11/04 08:39:06;;;;;;;12.95;5.63;;;9.70;99.90;;;;;;5083619;28;20033;-54
2022/11/04 08:41:33;;;;;;;11.23;5.82;;;9.80;99.90;;;;;;5051316;28;20518;-57
2022/11/04 08:43:59;;;;;;;10.75;4.82;;;9.90;99.90;;;;;;5016570;28;20657;-53
2022/11/04 08:46:31;;;;;;;12.63;4.72;;;10.00;99.90;;;;;;5003104;28;20030;-53
2022/11/04 08:48:57;;;;;;;11.18;4.70;;;10.10;99.90;;;;;;5002696;28;20037;-58
2022/11/04 08:51:24;;;;;;;11.13;4.70;;;10.20;99.90;;;;;;5003236;28;20374;-55
2022/11/04 08:53:50;;;;;;;13.05;5.40;;;10.20;99.90;;;;;;4991860;28;20508;-60
2022/11/04 08:56:19;;;;;;;13.73;5.32;;;10.30;99.90;;;;;;4990342;28;20077;-60
2022/11/04 08:58:45;;;;;;;10.93;4.32;;;10.30;99.90;;;;;;4990955;28;20478;-61
2022/11/04 09:01:11;;;;;;;11.55;5.45;;;10.50;99.90;;;;;;4991479;28;20111;-61
2022/11/04 09:03:38;;;;;;;11.70;5.30;;;10.60;99.90;;;;;;4990609;28;20080;-60
2022/11/04 09:06:35;;;;;;;13.05;5.85;;;10.70;99.90;;;;;;4991444;28;20054;-60
2022/11/04 09:09:03;;;;;;;13.20;5.28;;;10.80;99.90;;;;;;4991061;28;20371;-59
2022/11/04 09:11:31;;;;;;;9.38;4.97;;;10.80;99.90;;;;;;4990806;28;20038;-61
2022/11/04 09:14:01;;;;;;;10.68;5.32;;;10.90;99.90;;;;;;4990857;28;20031;-60
2022/11/04 09:16:29;;;;;;;12.82;5.53;;;11.00;99.90;;;;;;4991147;28;20072;-61
2022/11/04 09:18:56;;;;;;;13.27;5.38;;;11.00;99.90;;;;;;5058695;28;20106;-59
2022/11/04 09:21:23;;;;;;;10.27;4.80;;;11.10;99.90;;;;;;4990839;28;20033;-60
2022/11/04 09:23:48;;;;;;;9.85;5.38;;;11.10;99.90;;;;;;4990600;28;20475;-60
2022/11/04 09:26:15;;;;;;;13.07;5.93;;;11.20;99.90;;;;;;4990951;28;20018;-61
2022/11/04 09:28:41;;;;;;;14.40;5.78;;;11.30;99.90;;;;;;4991068;28;20025;-60
2022/11/04 09:31:17;;;;;;;13.75;6.00;;;11.40;99.90;;;;;;4990211;28;20026;-60
2022/11/04 09:33:43;;;;;;;11.63;5.55;;;11.50;99.90;;;;;;4990765;28;20019;-60
2022/11/04 09:36:10;;;;;;;10.63;6.25;;;11.60;99.90;;;;;;4991033;28;20026;-61
2022/11/04 09:38:37;;;;;;;11.68;6.10;;;11.70;99.90;;;;;;4989918;28;20064;-60
2022/11/04 09:41:20;;;;;;;14.88;6.50;;;11.70;99.90;;;;;;4990317;28;20145;-60
2022/11/04 09:44:01;;;;;;;10.70;5.85;;;11.80;99.90;;;;;;4990447;28;20031;-61
2022/11/04 09:46:31;;;;;;;9.43;5.93;;;11.90;99.90;;;;;;4989979;28;20026;-61
2022/11/04 09:49:00;;;;;;;12.77;6.43;;;11.90;99.90;;;;;;4989751;28;20054;-58
2022/11/04 09:51:26;;;;;;;13.98;6.60;;;12.00;99.90;;;;;;5049701;28;20106;-62
2022/11/04 09:53:57;;;;;;;10.48;6.05;;;12.00;99.90;;;;;;4989345;28;20026;-63
2022/11/04 09:56:30;;;;;;;14.13;6.20;;;12.10;99.90;;;;;;4988247;28;20019;-60
2022/11/04 09:58:56;;;;;;;14.10;6.10;;;12.20;99.90;;;;;;4989808;28;20457;-64
2022/11/04 10:01:30;;;;;;;14.95;8.23;;;12.20;99.90;;;;;;4990421;28;20494;-64
2022/11/04 10:04:40;;;;;;;13.43;8.00;;;12.20;99.90;;;;;;4990064;28;20075;-64
2022/11/04 10:07:32;;;;;;;15.52;8.02;;;12.20;99.90;;;;;;5008438;28;20038;-59
2022/11/04 10:10:26;;;;;;;10.93;7.00;;;12.20;99.90;;;;;;4990302;28;20023;-60
2022/11/04 10:13:03;;;;;;;13.38;7.63;;;12.20;99.90;;;;;;4989857;28;20027;-61
2022/11/04 10:15:32;;;;;;;13.20;8.85;;;12.20;99.90;;;;;;4990187;28;20608;-61
2022/11/04 10:18:42;;;;;;;12.10;7.03;;;12.20;99.90;;;;;;4990046;28;20091;-59
2022/11/04 10:21:36;;;;;;;12.90;8.40;;;12.30;99.90;;;;;;4990738;28;20048;-63
2022/11/04 10:24:22;;;;;;;14.23;7.43;;;12.40;99.90;;;;;;4990300;28;20069;-62
2022/11/04 10:26:57;;;;;;;14.93;8.20;;;12.50;99.90;;;;;;4990042;28;20482;-61
2022/11/04 10:29:36;;;;;;;12.13;7.43;;;12.60;99.90;;;;;;4989938;28;20023;-65
2022/11/04 10:32:31;;;;;;;14.20;8.15;;;12.60;99.90;;;;;;4989826;28;20022;-59
2022/11/04 10:35:06;;;;;;;12.38;7.63;;;12.60;99.90;;;;;;4990820;28;20088;-62
2022/11/04 10:37:33;;;;;;;12.32;8.13;;;12.70;99.90;;;;;;4987564;28;20022;-60
2022/11/04 10:40:24;;;;;;;12.48;7.65;;;12.70;99.90;;;;;;4989384;28;20501;-60
2022/11/04 10:42:50;;;;;;;;;;;12.80;99.90;;;;;;4970197;28;20141;-59
2022/11/04 10:45:19;;;;;;;17.52;7.55;;;12.80;99.90;;;;;;4987870;28;20047;-60
2022/11/04 10:47:57;;;;;;;14.38;8.05;;;12.80;99.90;;;;;;4987197;28;20034;-59
2022/11/04 10:50:48;;;;;;;17.58;8.77;;;12.70;99.90;;;;;;5009947;28;20474;-63
2022/11/04 10:53:21;;;;;;;15.35;7.93;;;12.60;99.90;;;;;;5055834;28;20075;-58
2022/11/04 10:55:57;;;;;;;12.90;7.90;;;12.50;99.90;;;;;;4987902;28;20378;-59
2022/11/04 10:58:34;;;;;;;12.48;7.97;;;12.40;99.90;;;;;;4989238;28;20041;-58
2022/11/04 11:01:30;;;;;;;12.50;8.82;;;12.30;99.90;;;;;;4989296;28;20022;-58
2022/11/04 11:03:56;;;;;;;19.38;8.35;;;12.20;99.90;;;;;;4987600;28;20035;-59
2022/11/04 11:06:28;;;;;;;13.98;7.97;;;12.10;99.90;;;;;;4988167;28;20029;-60
2022/11/04 11:09:11;;;;;;;13.07;8.75;;;12.10;99.90;;;;;;4986238;28;20030;-60
2022/11/04 11:11:47;;;;;;;13.98;8.82;;;11.90;99.90;;;;;;5055649;28;20117;-58
2022/11/04 11:14:37;;;;;;;15.70;9.35;;;11.70;99.90;;;;;;4986339;28;20030;-62
2022/11/04 11:17:17;;;;;;;17.60;9.65;;;11.60;99.90;;;;;;4986565;28;20087;-60
2022/11/04 11:19:52;;;;;;;16.80;10.00;;;11.50;99.90;;;;;;4988580;28;20026;-60
2022/11/04 11:22:34;;;;;;;21.33;10.02;;;11.40;99.90;;;;;;5055350;28;20049;-60
2022/11/04 11:25:23;;;;;;;17.85;9.30;;;11.40;99.90;;;;;;4987974;28;20103;-61
2022/11/04 11:27:59;;;;;;;17.58;9.23;;;11.40;99.90;;;;;;4989196;28;20095;-63
2022/11/04 11:30:27;;;;;;;18.25;10.30;;;11.40;99.90;;;;;;4988722;28;20081;-61
2022/11/04 11:33:00;;;;;;;15.13;10.20;;;11.40;99.90;;;;;;4989043;28;20022;-61
2022/11/04 11:35:31;;;;;;;17.63;10.43;;;11.40;99.90;;;;;;4988845;28;20029;-60
2022/11/04 11:37:59;;;;;;;19.65;8.82;;;11.40;99.90;;;;;;4989881;28;20362;-62
2022/11/04 11:40:36;;;;;;;15.48;9.27;;;11.50;99.90;;;;;;4989380;28;20030;-60
2022/11/04 11:43:04;;;;;;;14.80;7.43;;;11.70;99.90;;;;;;4989192;28;20096;-60
2022/11/04 11:45:30;;;;;;;16.15;8.98;;;11.90;99.90;;;;;;4988432;28;20065;-63
2022/11/04 11:47:56;;;;;;;13.30;7.95;;;12.00;99.90;;;;;;4988868;28;20409;-60
2022/11/04 11:50:33;;;;;;;15.65;9.77;;;12.20;99.90;;;;;;4989272;28;20033;-60
2022/11/04 11:53:18;;;;;;;17.02;10.73;;;12.30;99.90;;;;;;4988463;28;20042;-60
2022/11/04 11:56:30;;;;;;;15.60;9.63;;;12.40;99.90;;;;;;4998525;28;20018;-61
2022/11/04 11:59:17;;;;;;;14.07;9.88;;;12.50;99.90;;;;;;5053359;28;20034;-62
2022/11/04 12:01:55;;;;;;;18.30;10.63;;;12.60;99.90;;;;;;4988992;28;20039;-61
2022/11/04 12:04:21;;;;;;;16.42;9.95;;;12.70;99.90;;;;;;4989015;28;20124;-60
2022/11/04 12:06:53;;;;;;;16.25;9.80;;;12.70;99.90;;;;;;4988336;28;20015;-61
2022/11/04 12:09:37;;;;;;;16.25;9.43;;;12.80;99.90;;;;;;4988774;28;20031;-61
2022/11/04 12:12:30;;;;;;;14.35;8.82;;;12.90;99.90;;;;;;5056102;28;20034;-62
2022/11/04 12:15:12;;;;;;;15.40;9.52;;;13.00;99.90;;;;;;4989027;28;20026;-61
2022/11/04 12:17:37;;;;;;;;;;;13.10;99.90;;;;;;4989496;28;20079;-60
2022/11/04 12:20:21;;;;;;;16.33;11.23;;;13.10;99.90;;;;;;4988380;28;19906;-62
2022/11/04 12:23:19;;;;;;;14.50;10.60;;;13.10;99.90;;;;;;4988507;28;20038;-60
2022/11/04 12:26:11;;;;;;;15.88;9.23;;;13.10;99.90;;;;;;4987389;28;20029;-61
2022/11/04 12:29:00;;;;;;;18.35;10.63;;;13.10;99.90;;;;;;4986540;28;20033;-61
2022/11/04 12:31:58;;;;;;;18.98;10.25;;;13.10;99.90;;;;;;4990309;28;20505;-64
2022/11/04 12:35:08;;;;;;;17.17;9.07;;;13.10;99.90;;;;;;4989441;28;20014;-61
2022/11/04 12:37:58;;;;;;;19.35;10.65;;;13.10;99.90;;;;;;4992628;28;20027;-61
2022/11/04 12:40:52;;;;;;;16.73;10.15;;;13.00;99.90;;;;;;4981623;28;20067;-60
2022/11/04 12:43:44;;;;;;;13.55;9.18;;;12.90;99.90;;;;;;4998861;28;20559;-60
2022/11/04 12:46:36;;;;;;;13.73;8.02;;;12.90;99.90;;;;;;5004702;28;20038;-60
2022/11/04 12:49:23;;;;;;;14.15;8.40;;;13.00;99.90;;;;;;5057442;28;20045;-61
2022/11/04 12:51:57;;;;;;;12.00;8.15;;;13.00;99.90;;;;;;4989405;28;20381;-59
2022/11/04 12:54:25;;;;;;;12.93;8.40;;;13.10;99.90;;;;;;4987632;28;20029;-58
2022/11/04 12:57:23;;;;;;;15.65;9.88;;;13.10;99.90;;;;;;4990588;28;20482;-61
2022/11/04 13:00:03;;;;;;;13.60;9.07;;;13.10;99.90;;;;;;5053548;28;20528;-59
2022/11/04 13:02:35;;;;;;;11.57;8.17;;;13.10;99.90;;;;;;4987285;28;20034;-61
2022/11/04 13:05:24;;;;;;;13.15;8.38;;;13.00;99.90;;;;;;5019124;28;20336;-61
2022/11/04 13:07:57;;;;;;;12.05;7.68;;;13.00;99.90;;;;;;5060851;28;20037;-60
2022/11/04 13:10:45;;;;;;;10.70;8.05;;;12.90;99.90;;;;;;4987807;28;20019;-60
2022/11/04 13:13:12;;;;;;;13.63;7.80;;;13.00;99.90;;;;;;4969369;28;20050;-60
2022/11/04 13:15:55;;;;;;;12.98;8.77;;;13.00;99.90;;;;;;4970196;28;20031;-59
2022/11/04 13:18:24;;;;;;;13.43;7.28;;;13.00;99.90;;;;;;4970935;28;20490;-63
2022/11/04 13:21:08;;;;;;;14.27;7.93;;;13.00;99.80;;;;;;4972804;28;20095;-59
2022/11/04 13:24:04;;;;;;;13.88;8.23;;;12.90;99.40;;;;;;5056783;28;20066;-60
2022/11/04 13:26:31;;;;;;;16.08;8.05;;;12.90;99.50;;;;;;4990067;28;20045;-58
2022/11/04 13:29:08;;;;;;;13.32;8.43;;;12.80;99.50;;;;;;4990006;28;20062;-58
2022/11/04 13:31:53;;;;;;;13.82;8.75;;;12.80;99.30;;;;;;4990352;28;20022;-61
2022/11/04 13:34:47;;;;;;;14.95;9.60;;;12.80;99.40;;;;;;4977240;28;20026;-59
2022/11/04 13:37:27;;;;;;;16.30;8.77;;;12.80;99.70;;;;;;4983248;28;20018;-59
2022/11/04 13:40:06;;;;;;;12.90;8.63;;;12.80;99.70;;;;;;4988607;28;20022;-60
2022/11/04 13:45:55;;;;;;;19.80;9.65;;;12.80;99.60;;;;;;4991045;28;20037;-60
2022/11/04 13:48:25;;;;;;;16.13;9.82;;;12.80;99.60;;;;;;4989271;28;20026;-60